As Valentia — A8SO8 — position and weather

sailwx.info

Track history (hours):
 
Tides and Currents Weather Stations Pressure Air Temp Water Temp Dewpoint Dewpoint Depression Visibility Wind Speed Wind Dir Waves Ship Positions

As Valentia

Last reported at 2014-Aug-22 18:00 UTC. Time now 2014-Aug-23 13:23 UTC.
Position S 23°00' E 055°42'.

Length 190 m; draft 11.1 m.

Type: Cargo ship. MMSI: 636091770.

Wind from 060 at 14 knots

Waves 1.0 meters (3 feet), 3 second period

Barometer 1017.0 mb
Air temperature 22.0 ° C
Visibility: greater than 10.8 NM
Dewpoint 17.5 ° C

Date/timePositionNaut miles runAvg speedWind from/ knotsBaromVisibWave heightAir tempDewpointWater temp
2014-Aug-22 18:00S 23°00' E 055°42'12510.4 060 / 141017.010.8 1.022.017.5
2014-Aug-22 06:00S 23°48' E 053°36'12510.4 050 / 151017.610.8 1.024.016.4
2014-Aug-21 18:00S 24°36' E 051°30'57 9.6 030 / 14 10.8 1.022.017.5
2014-Aug-21 12:00S 24°54' E 050°30'399 9.5 360 / 171018.0 2.2 2.020.519.0
2014-Aug-19 18:00S 27°18' E 043°36'51 8.5 010 / 121019.010.8 1.021.018.0
2014-Aug-19 12:00S 27°36' E 042°42'46 7.7 350 / 111018.5 5.4 1.023.022.2
2014-Aug-19 06:00S 27°54' E 041°54'102 8.5 010 / 121019.010.8 1.021.019.5
2014-Aug-18 18:00S 28°30' E 040°06'44 7.3 360 / 181020.0 2.2 2.019.017.5
2014-Aug-18 12:00S 28°42' E 039°18'155 8.6 070 / 221020.0 5.4 3.019.017.3
2014-Aug-17 18:00S 29°12' E 036°24'58 9.6 070 / 181026.0 5.4 2.020.013.5
2014-Aug-17 12:00S 29°18' E 035°18'164 9.1 080 / 171026.010.8 2.020.016.6
2014-Aug-16 18:00S 29°42' E 032°12'26 5.9 100 / 121032.0 5.4 1.020.016.9
2014-Aug-16 13:31S 29°46' E 031°42'6 6.2
2014-Aug-16 12:33S 29°47' E 031°35'9 8.9
2014-Aug-16 11:33S 29°49' E 031°25'7 6.6
2014-Aug-16 10:33S 29°49' E 031°18'10 9.9
2014-Aug-16 09:33S 29°50' E 031°06'4 3.5
2014-Aug-16 08:25S 29°52' E 031°03'0 0.0
2014-Aug-16 07:25S 29°52' E 031°03'0 0.0
2014-Aug-16 06:25S 29°52' E 031°03'0 0.0
2014-Aug-16 05:31S 29°52' E 031°03'0 0.0
2014-Aug-16 04:31S 29°52' E 031°03'0 0.0
2014-Aug-16 03:31S 29°52' E 031°03'0 0.0
2014-Aug-16 02:19S 29°52' E 031°03'0 0.0
2014-Aug-16 01:31S 29°52' E 031°03'0 0.0
2014-Aug-16 00:31S 29°52' E 031°03'0 0.0
2014-Aug-15 23:19S 29°52' E 031°03'0 0.0
2014-Aug-15 22:31S 29°52' E 031°03'0 0.0
2014-Aug-15 21:31S 29°52' E 031°03'0 0.0
2014-Aug-15 20:31S 29°52' E 031°03'1 0.5
2014-Aug-15 19:25S 29°53' E 031°03'0 0.0
2014-Aug-15 18:31S 29°53' E 031°03'0 0.0
2014-Aug-15 17:31S 29°53' E 031°03'0 0.0
2014-Aug-15 16:25S 29°53' E 031°03'0 0.0
2014-Aug-15 15:31S 29°53' E 031°03'0 0.0
2014-Aug-15 14:31S 29°53' E 031°03'0 0.0
2014-Aug-15 13:31S 29°53' E 031°03'0 0.0
2014-Aug-15 12:07S 29°53' E 031°03'0 0.0
2014-Aug-15 11:31S 29°53' E 031°03'0 0.0
2014-Aug-15 10:31S 29°53' E 031°03'0 0.0
2014-Aug-15 09:31S 29°53' E 031°03'0 0.0
2014-Aug-15 08:31S 29°53' E 031°03'0 0.0
2014-Aug-15 07:25S 29°53' E 031°03'0 0.0
2014-Aug-15 06:25S 29°53' E 031°03'0 0.0
2014-Aug-15 05:25S 29°53' E 031°03'0 0.0
2014-Aug-15 04:31S 29°53' E 031°03'0 0.0
2014-Aug-15 03:31S 29°53' E 031°03'0 0.0
2014-Aug-15 02:31S 29°53' E 031°03'0 0.0
2014-Aug-15 01:31S 29°53' E 031°03'0 0.0
2014-Aug-15 00:31S 29°53' E 031°03'0 0.0
2014-Aug-14 23:31S 29°53' E 031°03'0 0.0
2014-Aug-14 22:25S 29°53' E 031°03'0 0.0
2014-Aug-14 21:31S 29°53' E 031°03'0 0.0
2014-Aug-14 20:31S 29°53' E 031°03'0 0.0
2014-Aug-14 19:31S 29°53' E 031°03'0 0.0
2014-Aug-14 18:31S 29°53' E 031°03'0 0.0
2014-Aug-14 17:25S 29°53' E 031°03'0 0.0
2014-Aug-14 16:07S 29°53' E 031°03'0 0.0
2014-Aug-14 15:19S 29°53' E 031°03'0 0.0
2014-Aug-14 14:31S 29°53' E 031°03'0 0.0
2014-Aug-14 13:31S 29°53' E 031°03'0 0.0
2014-Aug-14 12:31S 29°53' E 031°03'0 0.0
2014-Aug-14 11:31S 29°53' E 031°03'0 0.0
2014-Aug-14 10:25S 29°53' E 031°03'0 0.0
2014-Aug-14 09:25S 29°53' E 031°03'0 0.0
2014-Aug-14 08:25S 29°53' E 031°03'0 0.0
2014-Aug-14 07:31S 29°53' E 031°03'0 0.0
2014-Aug-14 06:32S 29°53' E 031°03'0 0.2
2014-Aug-14 05:31S 29°53' E 031°03'0 0.0
2014-Aug-14 04:31S 29°53' E 031°03'0 0.0
2014-Aug-14 03:31S 29°53' E 031°03'0 0.0
2014-Aug-14 02:31S 29°53' E 031°03'0 0.0
2014-Aug-14 01:31S 29°53' E 031°03'0 0.0
2014-Aug-14 00:31S 29°53' E 031°03'0 0.0
2014-Aug-13 23:25S 29°53' E 031°03'0 0.0
2014-Aug-13 22:31S 29°53' E 031°03'0 0.0
2014-Aug-13 21:19S 29°53' E 031°03'0 0.0
2014-Aug-13 20:31S 29°53' E 031°03'0 0.0
2014-Aug-13 19:25S 29°53' E 031°03'0 0.0
2014-Aug-13 18:31S 29°53' E 031°03'0 0.0
2014-Aug-13 17:31S 29°53' E 031°03'0 0.0
2014-Aug-13 16:31S 29°53' E 031°03'0 0.0
2014-Aug-13 15:31S 29°53' E 031°03'  
Track history (hours):
 
Tides and Currents Weather Stations Pressure Air Temp Water Temp Dewpoint Dewpoint Depression Visibility Wind Speed Wind Dir Waves Ship Positions

As Valentia

Last reported at 2014-Aug-22 18:00 UTC. Time now 2014-Aug-23 13:23 UTC.
Position S 23°00' E 055°42'.

Length 190 m; draft 11.1 m.

Type: Cargo ship. MMSI: 636091770.

Wind from 060 at 14 knots

Waves 1.0 meters (3 feet), 3 second period

Barometer 1017.0 mb
Air temperature 22.0 ° C
Visibility: greater than 10.8 NM
Dewpoint 17.5 ° C

Date/timePositionNaut miles runAvg speedWind from/ knotsBaromVisibWave heightAir tempDewpointWater temp
2014-Aug-22 18:00S 23°00' E 055°42'12510.4 060 / 141017.010.8 1.022.017.5
2014-Aug-22 06:00S 23°48' E 053°36'12510.4 050 / 151017.610.8 1.024.016.4
2014-Aug-21 18:00S 24°36' E 051°30'57 9.6 030 / 14 10.8 1.022.017.5
2014-Aug-21 12:00S 24°54' E 050°30'399 9.5 360 / 171018.0 2.2 2.020.519.0
2014-Aug-19 18:00S 27°18' E 043°36'51 8.5 010 / 121019.010.8 1.021.018.0
2014-Aug-19 12:00S 27°36' E 042°42'46 7.7 350 / 111018.5 5.4 1.023.022.2
2014-Aug-19 06:00S 27°54' E 041°54'102 8.5 010 / 121019.010.8 1.021.019.5
2014-Aug-18 18:00S 28°30' E 040°06'44 7.3 360 / 181020.0 2.2 2.019.017.5
2014-Aug-18 12:00S 28°42' E 039°18'155 8.6 070 / 221020.0 5.4 3.019.017.3
2014-Aug-17 18:00S 29°12' E 036°24'58 9.6 070 / 181026.0 5.4 2.020.013.5
2014-Aug-17 12:00S 29°18' E 035°18'164 9.1 080 / 171026.010.8 2.020.016.6
2014-Aug-16 18:00S 29°42' E 032°12'26 5.9 100 / 121032.0 5.4 1.020.016.9
2014-Aug-16 13:31S 29°46' E 031°42'6 6.2
2014-Aug-16 12:33S 29°47' E 031°35'9 8.9
2014-Aug-16 11:33S 29°49' E 031°25'7 6.6
2014-Aug-16 10:33S 29°49' E 031°18'10 9.9
2014-Aug-16 09:33S 29°50' E 031°06'4 3.5
2014-Aug-16 08:25S 29°52' E 031°03'0 0.0
2014-Aug-16 07:25S 29°52' E 031°03'0 0.0
2014-Aug-16 06:25S 29°52' E 031°03'0 0.0
2014-Aug-16 05:31S 29°52' E 031°03'0 0.0
2014-Aug-16 04:31S 29°52' E 031°03'0 0.0
2014-Aug-16 03:31S 29°52' E 031°03'0 0.0
2014-Aug-16 02:19S 29°52' E 031°03'0 0.0
2014-Aug-16 01:31S 29°52' E 031°03'0 0.0
2014-Aug-16 00:31S 29°52' E 031°03'0 0.0
2014-Aug-15 23:19S 29°52' E 031°03'0 0.0
2014-Aug-15 22:31S 29°52' E 031°03'0 0.0
2014-Aug-15 21:31S 29°52' E 031°03'0 0.0
2014-Aug-15 20:31S 29°52' E 031°03'1 0.5
2014-Aug-15 19:25S 29°53' E 031°03'0 0.0
2014-Aug-15 18:31S 29°53' E 031°03'0 0.0
2014-Aug-15 17:31S 29°53' E 031°03'0 0.0
2014-Aug-15 16:25S 29°53' E 031°03'0 0.0
2014-Aug-15 15:31S 29°53' E 031°03'0 0.0
2014-Aug-15 14:31S 29°53' E 031°03'0 0.0
2014-Aug-15 13:31S 29°53' E 031°03'0 0.0
2014-Aug-15 12:07S 29°53' E 031°03'0 0.0
2014-Aug-15 11:31S 29°53' E 031°03'0 0.0
2014-Aug-15 10:31S 29°53' E 031°03'0 0.0
2014-Aug-15 09:31S 29°53' E 031°03'0 0.0
2014-Aug-15 08:31S 29°53' E 031°03'0 0.0
2014-Aug-15 07:25S 29°53' E 031°03'0 0.0
2014-Aug-15 06:25S 29°53' E 031°03'0 0.0
2014-Aug-15 05:25S 29°53' E 031°03'0 0.0
2014-Aug-15 04:31S 29°53' E 031°03'0 0.0
2014-Aug-15 03:31S 29°53' E 031°03'0 0.0
2014-Aug-15 02:31S 29°53' E 031°03'0 0.0
2014-Aug-15 01:31S 29°53' E 031°03'0 0.0
2014-Aug-15 00:31S 29°53' E 031°03'0 0.0
2014-Aug-14 23:31S 29°53' E 031°03'0 0.0
2014-Aug-14 22:25S 29°53' E 031°03'0 0.0
2014-Aug-14 21:31S 29°53' E 031°03'0 0.0
2014-Aug-14 20:31S 29°53' E 031°03'0 0.0
2014-Aug-14 19:31S 29°53' E 031°03'0 0.0
2014-Aug-14 18:31S 29°53' E 031°03'0 0.0
2014-Aug-14 17:25S 29°53' E 031°03'0 0.0
2014-Aug-14 16:07S 29°53' E 031°03'0 0.0
2014-Aug-14 15:19S 29°53' E 031°03'0 0.0
2014-Aug-14 14:31S 29°53' E 031°03'0 0.0
2014-Aug-14 13:31S 29°53' E 031°03'0 0.0
2014-Aug-14 12:31S 29°53' E 031°03'0 0.0
2014-Aug-14 11:31S 29°53' E 031°03'0 0.0
2014-Aug-14 10:25S 29°53' E 031°03'0 0.0
2014-Aug-14 09:25S 29°53' E 031°03'0 0.0
2014-Aug-14 08:25S 29°53' E 031°03'0 0.0
2014-Aug-14 07:31S 29°53' E 031°03'0 0.0
2014-Aug-14 06:32S 29°53' E 031°03'0 0.2
2014-Aug-14 05:31S 29°53' E 031°03'0 0.0
2014-Aug-14 04:31S 29°53' E 031°03'0 0.0
2014-Aug-14 03:31S 29°53' E 031°03'0 0.0
2014-Aug-14 02:31S 29°53' E 031°03'0 0.0
2014-Aug-14 01:31S 29°53' E 031°03'0 0.0
2014-Aug-14 00:31S 29°53' E 031°03'0 0.0
2014-Aug-13 23:25S 29°53' E 031°03'0 0.0
2014-Aug-13 22:31S 29°53' E 031°03'0 0.0
2014-Aug-13 21:19S 29°53' E 031°03'0 0.0
2014-Aug-13 20:31S 29°53' E 031°03'0 0.0
2014-Aug-13 19:25S 29°53' E 031°03'0 0.0
2014-Aug-13 18:31S 29°53' E 031°03'0 0.0
2014-Aug-13 17:31S 29°53' E 031°03'0 0.0
2014-Aug-13 16:31S 29°53' E 031°03'0 0.0
2014-Aug-13 15:31S 29°53' E 031°03'  

Dump ship's entire track history